Time;durP1;ratioP1;P1;durP2;ratioP2;P2;SDS_P1;SDS_P2;PMS_P1;PMS_P2;Temp;Humidity;BMP_temperature;BMP_pressure;BME280_temperature;BME280_humidity;BME280_pressure;Samples;Min_cycle;Max_cycle;Signal;HPM_P1;HPM_P2
2022/04/20 00:02:11;;;;;;;2.60;2.40;;;;;;;7.01;61.49;97867.03;5074942;28;20222;-61
2022/04/20 00:04:37;;;;;;;2.80;2.27;;;;;;;6.94;61.95;97870.94;5074632;28;20235;-61
2022/04/20 00:07:04;;;;;;;4.70;2.87;;;;;;;6.90;62.23;97868.59;5074655;28;20269;-61
2022/04/20 00:09:32;;;;;;;3.30;2.40;;;;;;;6.82;61.90;97869.03;5075057;28;20215;-61
2022/04/20 00:11:59;;;;;;;5.97;2.97;;;;;;;6.81;62.47;97863.88;5073330;28;20571;-61
2022/04/20 00:14:25;;;;;;;3.07;2.77;;;;;;;6.87;63.23;97859.13;5075105;28;20215;-61
2022/04/20 00:16:52;;;;;;;4.03;2.53;;;;;;;6.76;63.64;97858.03;5074811;28;20218;-61
2022/04/20 00:19:18;;;;;;;7.90;2.50;;;;;;;6.61;64.10;97857.19;5074892;28;20212;-61
2022/04/20 00:21:45;;;;;;;2.47;2.27;;;;;;;6.48;63.27;97858.78;5074915;28;20225;-61
2022/04/20 00:24:11;;;;;;;4.63;2.53;;;;;;;6.38;62.99;97851.53;5074283;28;20242;-61
2022/04/20 00:26:39;;;;;;;3.00;2.37;;;;;;;6.35;63.25;97855.16;5074755;28;20211;-63
2022/04/20 00:29:05;;;;;;;3.43;2.50;;;;;;;6.30;63.96;97862.47;5074468;28;20585;-62
2022/04/20 00:31:32;;;;;;;4.80;2.70;;;;;;;6.25;64.33;97861.03;5074613;28;20590;-63
2022/04/20 00:33:58;;;;;;;5.10;3.03;;;;;;;6.20;65.31;97861.31;5074228;28;20684;-62
2022/04/20 00:36:25;;;;;;;3.67;2.50;;;;;;;6.13;66.67;97859.09;5074635;28;20215;-62
2022/04/20 00:38:51;;;;;;;4.83;3.10;;;;;;;6.10;67.15;97859.28;5072667;28;20219;-62
2022/04/20 00:41:18;;;;;;;5.53;3.20;;;;;;;6.04;68.34;97859.63;5073659;28;20681;-62
2022/04/20 00:43:46;;;;;;;3.87;3.47;;;;;;;5.91;68.83;97862.06;5074023;28;20723;-62
2022/04/20 00:46:13;;;;;;;5.90;3.53;;;;;;;5.85;70.54;97865.03;5074375;28;20263;-62
2022/04/20 00:48:41;;;;;;;4.87;3.20;;;;;;;5.76;70.87;97859.41;5074103;28;20219;-62
2022/04/20 00:51:07;;;;;;;3.73;3.37;;;;;;;5.70;71.25;97873.69;5074319;28;20219;-62
2022/04/20 00:53:34;;;;;;;3.87;3.10;;;;;;;5.63;71.88;97866.25;5073795;28;20703;-62
2022/04/20 00:56:00;;;;;;;4.20;3.80;;;;;;;5.59;72.76;97860.31;5073941;28;20214;-62
2022/04/20 00:58:26;;;;;;;4.13;3.73;;;;;;;5.51;74.19;97859.84;5073280;28;20583;-62
2022/04/20 01:00:54;;;;;;;3.70;3.40;;;;;;;5.44;74.20;97863.75;5073919;28;20242;-62
2022/04/20 01:03:21;;;;;;;4.07;3.67;;;;;;;5.42;73.91;97855.13;5073598;28;20225;-63
2022/04/20 01:05:47;;;;;;;7.03;3.57;;;;;;;5.36;74.98;97855.44;5072204;28;20214;-62
2022/04/20 01:08:14;;;;;;;4.73;3.87;;;;;;;5.39;75.46;97857.91;5073485;28;20208;-62
2022/04/20 01:10:40;;;;;;;3.47;3.17;;;;;;;5.32;75.61;97861.75;5073644;28;20229;-62
2022/04/20 01:13:07;;;;;;;5.03;3.40;;;;;;;5.26;75.63;97869.13;5073423;28;20219;-61
2022/04/20 01:15:35;;;;;;;4.27;3.80;;;;;;;5.19;76.48;97863.34;5073761;28;20218;-62
2022/04/20 01:18:10;;;;;;;4.00;3.57;;;;;;;5.17;77.11;97865.19;5073610;28;20214;-63
2022/04/20 01:20:38;;;;;;;6.03;4.30;;;;;;;5.06;77.40;97867.53;5073628;28;20216;-62
2022/04/20 01:23:05;;;;;;;4.80;4.00;;;;;;;4.97;77.92;97865.38;5073634;28;20207;-62
2022/04/20 01:25:32;;;;;;;4.10;3.67;;;;;;;4.91;78.30;97863.09;5073100;28;20238;-62
2022/04/20 01:27:59;;;;;;;3.40;3.10;;;;;;;4.88;78.28;97863.22;5073248;28;20218;-61
2022/04/20 01:30:26;;;;;;;4.27;3.50;;;;;;;4.83;78.86;97865.22;5072009;28;20570;-60
2022/04/20 01:32:52;;;;;;;3.50;3.20;;;;;;;4.74;79.59;97865.72;5073185;28;20217;-63
2022/04/20 01:35:19;;;;;;;4.70;3.60;;;;;;;4.73;79.82;97853.53;5073493;28;20214;-62
2022/04/20 01:37:47;;;;;;;4.00;3.60;;;;;;;4.73;80.24;97864.00;5073437;28;20218;-61
2022/04/20 01:40:13;;;;;;;5.13;3.50;;;;;;;4.73;79.99;97864.00;5073362;28;20219;-61
2022/04/20 01:42:39;;;;;;;3.97;3.57;;;;;;;4.70;79.60;97855.47;5073430;28;20244;-61
2022/04/20 01:45:06;;;;;;;4.93;3.83;;;;;;;4.64;80.17;97859.22;5073394;28;20241;-61
2022/04/20 01:47:33;;;;;;;3.93;3.57;;;;;;;4.59;80.56;97866.44;5073281;28;20632;-62
2022/04/20 01:49:59;;;;;;;3.70;3.40;;;;;;;4.53;80.56;97858.91;5073459;28;20233;-62
2022/04/20 01:52:26;;;;;;;4.50;3.90;;;;;;;4.46;81.69;97860.13;5072600;28;20548;-61
2022/04/20 01:54:53;;;;;;;3.97;3.63;;;;;;;4.41;81.54;97862.13;5073169;28;20335;-61
2022/04/20 01:57:20;;;;;;;5.23;3.87;;;;;;;4.40;80.72;97862.22;5071376;28;20230;-61
2022/04/20 01:59:46;;;;;;;4.67;3.50;;;;;;;4.32;80.82;97857.34;5072825;28;20220;-61
2022/04/20 02:04:57;;;;;;;3.67;3.33;;;;;;;4.23;81.43;97868.25;5068402;28;20648;-62
2022/04/20 02:07:23;;;;;;;5.07;3.97;;;;;;;4.19;81.74;97864.09;5072934;28;20213;-62
2022/04/20 02:09:50;;;;;;;5.43;3.50;;;;;;;4.14;81.90;97860.00;5073071;28;20210;-62
2022/04/20 02:12:17;;;;;;;4.00;3.53;;;;;;;4.12;81.84;97865.34;5073099;28;20570;-63
2022/04/20 02:14:44;;;;;;;3.70;3.30;;;;;;;4.05;82.17;97863.94;5073031;28;20216;-61
2022/04/20 02:17:11;;;;;;;3.77;3.47;;;;;;;4.01;82.34;97862.38;5073013;28;20589;-62
2022/04/20 02:19:37;;;;;;;4.07;3.67;;;;;;;3.98;82.61;97857.28;5073005;28;20216;-62
2022/04/20 02:22:05;;;;;;;4.07;3.70;;;;;;;3.98;82.84;97862.50;5072660;28;20214;-63
2022/04/20 02:24:31;;;;;;;4.73;3.83;;;;;;;3.94;82.74;97860.97;5071193;28;20247;-62
2022/04/20 02:26:57;;;;;;;4.90;4.40;;;;;;;3.93;82.87;97864.50;5072772;28;20216;-62
2022/04/20 02:29:25;;;;;;;5.77;4.10;;;;;;;3.93;82.72;97869.75;5072837;28;20222;-62
2022/04/20 02:31:52;;;;;;;4.43;4.03;;;;;;;3.86;83.58;97865.69;5072815;28;20216;-61
2022/04/20 02:34:18;;;;;;;4.00;3.60;;;;;;;3.75;84.43;97860.16;5072768;28;20226;-62
2022/04/20 02:36:45;;;;;;;4.83;3.93;;;;;;;3.69;85.81;97865.66;5072813;28;20223;-65
2022/04/20 02:39:12;;;;;;;4.10;3.23;;;;;;;3.68;86.10;97863.94;5072854;28;20209;-62
2022/04/20 02:41:40;;;;;;;4.80;3.73;;;;;;;3.65;86.22;97864.09;5072722;28;20301;-62
2022/04/20 02:44:08;;;;;;;3.83;3.53;;;;;;;3.63;86.23;97860.72;5072804;28;20241;-62
2022/04/20 02:46:36;;;;;;;4.07;3.77;;;;;;;3.62;86.14;97859.00;5072748;28;20223;-62
2022/04/20 02:49:03;;;;;;;4.13;3.73;;;;;;;3.58;86.52;97857.47;5071726;28;20234;-63
2022/04/20 02:51:29;;;;;;;5.27;3.80;;;;;;;3.56;86.84;97854.03;5071878;28;20219;-61
2022/04/20 02:53:56;;;;;;;3.50;3.20;;;;;;;3.56;86.34;97858.44;5072261;28;20219;-62
2022/04/20 02:56:22;;;;;;;4.77;4.10;;;;;;;3.49;86.27;97863.09;5072166;28;20219;-63
2022/04/20 02:58:50;;;;;;;4.37;3.93;;;;;;;3.52;86.08;97857.72;5072647;28;20228;-61
2022/04/20 03:01:16;;;;;;;4.07;3.67;;;;;;;3.54;86.00;97870.75;5072525;28;20217;-61
2022/04/20 03:03:44;;;;;;;3.83;3.50;;;;;;;3.48;86.26;97858.78;5072598;28;20215;-61
2022/04/20 03:06:11;;;;;;;5.50;3.93;;;;;;;3.56;86.35;97869.72;5075796;28;20235;-62
2022/04/20 03:08:37;;;;;;;5.43;4.27;;;;;;;3.49;86.43;97860.47;5075959;28;20217;-62
2022/04/20 03:11:04;;;;;;;4.07;3.60;;;;;;;3.48;87.14;97864.00;5076050;28;20597;-61
2022/04/20 03:13:30;;;;;;;4.17;3.73;;;;;;;3.40;87.98;97867.88;5076018;28;20216;-62
2022/04/20 03:15:57;;;;;;;4.30;3.90;;;;;;;3.40;88.77;97867.88;5074538;28;20216;-61
2022/04/20 03:18:23;;;;;;;5.13;3.73;;;;;;;3.39;89.25;97861.81;5075713;28;20215;-63
2022/04/20 03:20:51;;;;;;;5.00;3.90;;;;;;;3.38;90.02;97862.75;5075692;28;20226;-63
2022/04/20 03:23:18;;;;;;;4.23;3.83;;;;;;;3.42;90.74;97869.50;5075679;28;20249;-63
2022/04/20 03:25:44;;;;;;;4.53;4.10;;;;;;;3.41;90.29;97867.81;5075675;28;20240;-62
2022/04/20 03:28:11;;;;;;;4.30;3.77;;;;;;;3.39;90.27;97861.81;5075841;28;20558;-61
2022/04/20 03:30:38;;;;;;;6.93;4.60;;;;;;;3.26;91.91;97865.03;5075743;28;20588;-61
2022/04/20 03:33:08;;;;;;;4.87;4.03;;;;;;;3.27;92.01;97867.59;5075387;28;20216;-61
2022/04/20 03:35:35;;;;;;;4.83;4.43;;;;;;;3.30;92.55;97872.66;5075699;28;20255;-62
2022/04/20 03:38:03;;;;;;;4.40;3.70;;;;;;;3.29;92.73;97873.59;5075622;28;20609;-61
2022/04/20 03:40:29;;;;;;;5.10;4.40;;;;;;;3.31;93.04;97868.31;5075258;28;20214;-61
2022/04/20 03:42:56;;;;;;;4.90;4.40;;;;;;;3.38;92.12;97864.50;5073320;28;20239;-62
2022/04/20 03:45:22;;;;;;;4.20;3.80;;;;;;;3.41;91.67;97869.56;5075370;28;20245;-62
2022/04/20 03:47:49;;;;;;;5.87;4.00;;;;;;;3.41;92.02;97859.97;5075104;28;20211;-63
2022/04/20 03:50:15;;;;;;;5.23;4.30;;;;;;;3.53;90.91;97869.88;5075540;28;20211;-63
2022/04/20 03:52:42;;;;;;;5.97;4.63;;;;;;;3.63;89.89;97871.16;5075357;28;20230;-63
2022/04/20 03:55:10;;;;;;;5.20;4.07;;;;;;;3.71;89.13;97873.41;5075390;28;20219;-62
2022/04/20 03:57:37;;;;;;;4.90;4.17;;;;;;;3.72;89.29;97870.72;5065839;28;20213;-63
2022/04/20 04:00:05;;;;;;;4.60;4.10;;;;;;;3.78;88.77;97865.22;5075339;28;20215;-62
2022/04/20 04:02:32;;;;;;;4.97;4.40;;;;;;;3.71;88.74;97873.41;5075150;28;20220;-63
2022/04/20 04:04:58;;;;;;;4.97;4.23;;;;;;;3.56;89.25;97869.72;5075102;28;20239;-62
2022/04/20 04:07:25;;;;;;;4.40;4.00;;;;;;;3.53;89.56;97869.88;5074844;28;20682;-62
2022/04/20 04:09:51;;;;;;;5.10;4.50;;;;;;;3.56;89.43;97869.72;5073279;28;20211;-62
2022/04/20 04:12:23;;;;;;;8.33;4.43;;;;;;;3.55;90.10;97861.97;5074923;28;20223;-63
2022/04/20 04:14:50;;;;;;;6.53;5.10;;;;;;;3.45;91.22;97866.78;5075243;28;20242;-63
2022/04/20 04:17:16;;;;;;;4.97;4.30;;;;;;;3.51;91.35;97868.25;5064506;28;20704;-63
2022/04/20 04:19:43;;;;;;;6.20;4.40;;;;;;;3.57;90.72;97866.22;5074907;28;20216;-62
2022/04/20 04:22:09;;;;;;;5.53;5.00;;;;;;;3.68;89.88;97868.34;5074693;28;20584;-63
2022/04/20 04:24:36;;;;;;;5.93;4.90;;;;;;;3.68;89.63;97869.16;5074627;28;20221;-62
2022/04/20 04:27:03;;;;;;;4.90;4.50;;;;;;;3.57;90.19;97870.59;5074537;28;20213;-61
2022/04/20 04:29:32;;;;;;;5.17;4.50;;;;;;;3.52;90.56;97883.00;5074659;28;20218;-62
2022/04/20 04:31:59;;;;;;;4.63;4.10;;;;;;;3.47;90.17;97877.13;5074662;28;20240;-62
2022/04/20 04:34:25;;;;;;;5.27;4.77;;;;;;;3.39;90.16;97876.63;5072887;28;20262;-61
2022/04/20 04:36:53;;;;;;;4.73;4.27;;;;;;;3.33;89.90;97877.78;5074220;28;20222;-61
2022/04/20 04:39:21;;;;;;;4.73;4.20;;;;;;;3.42;89.28;97876.53;5074432;28;20231;-62
2022/04/20 04:41:48;;;;;;;4.57;4.17;;;;;;;3.48;88.45;97876.25;5073995;28;20239;-61
2022/04/20 04:44:16;;;;;;;5.73;4.17;;;;;;;3.42;88.19;97879.13;5074025;28;20749;-61
2022/04/20 04:49:28;;;;;;;4.67;4.23;;;;;;;3.20;89.56;97880.97;5074008;28;20216;-62
2022/04/20 04:51:55;;;;;;;6.50;4.10;;;;;;;3.15;89.88;97883.81;5074251;28;20216;-62
2022/04/20 04:54:22;;;;;;;5.97;4.80;;;;;;;3.17;89.96;97884.56;5074266;28;20309;-61
2022/04/20 04:56:48;;;;;;;4.50;4.10;;;;;;;3.16;90.20;97885.50;5074173;28;20215;-61
2022/04/20 04:59:15;;;;;;;5.13;4.43;;;;;;;3.20;89.88;97881.84;5073763;28;20677;-61
2022/04/20 05:01:41;;;;;;;4.80;4.37;;;;;;;3.28;90.26;97887.56;5072258;28;20211;-62
2022/04/20 05:04:11;;;;;;;6.10;4.60;;;;;;;3.38;90.14;97886.25;5073929;28;20215;-61
2022/04/20 05:06:37;;;;;;;6.00;4.90;;;;;;;3.46;90.35;97881.53;5073648;28;20727;-63
2022/04/20 05:09:04;;;;;;;5.30;4.43;;;;;;;3.52;90.61;97886.47;5074051;28;20211;-61
2022/04/20 05:11:30;;;;;;;5.50;4.70;;;;;;;3.56;90.83;97885.41;5067517;28;20237;-61
2022/04/20 05:13:57;;;;;;;5.67;5.07;;;;;;;3.69;91.15;97881.34;5073741;28;20215;-61
2022/04/20 05:16:23;;;;;;;5.37;4.67;;;;;;;3.77;90.76;97881.81;5073386;28;20217;-62
2022/04/20 05:18:51;;;;;;;5.90;5.30;;;;;;;3.87;90.92;97879.63;5073588;28;20293;-63
2022/04/20 05:21:19;;;;;;;6.93;5.10;;;;;;;3.94;91.04;97881.88;5073371;28;20242;-63
2022/04/20 05:23:45;;;;;;;5.70;5.07;;;;;;;4.04;91.15;97877.06;5073593;28;20204;-62
2022/04/20 05:26:12;;;;;;;5.50;5.00;;;;;;;4.18;91.10;97878.13;5073373;28;20255;-62
2022/04/20 05:28:38;;;;;;;5.83;5.10;;;;;;;4.29;90.96;97881.03;5072073;28;20677;-62
2022/04/20 05:31:05;;;;;;;5.50;5.00;;;;;;;4.41;91.02;97871.75;5073187;28;20563;-61
2022/04/20 05:33:31;;;;;;;7.03;5.13;;;;;;;4.61;89.94;97869.00;5073376;28;20239;-62
2022/04/20 05:35:57;;;;;;;5.43;4.87;;;;;;;4.79;87.97;97876.78;5073538;28;20580;-61
2022/04/20 05:43:55;;;;;;;6.67;5.47;;;;;;;5.18;85.88;97887.00;5071228;28;20701;-62
2022/04/20 05:46:22;;;;;;;5.53;5.03;;;;;;;5.30;86.31;97881.97;5072917;28;20741;-62
2022/04/20 05:48:48;;;;;;;7.13;5.47;;;;;;;5.44;86.05;97889.94;5073092;28;20240;-62
2022/04/20 05:51:15;;;;;;;5.87;4.90;;;;;;;5.55;86.11;97881.53;5073366;28;20219;-61
2022/04/20 05:53:42;;;;;;;5.40;4.80;;;;;;;5.77;85.23;97887.31;5071674;28;20211;-63
2022/04/20 05:56:09;;;;;;;5.40;4.50;;;;;;;5.94;84.09;97887.28;5072877;28;20218;-63
2022/04/20 05:58:35;;;;;;;5.67;5.03;;;;;;;6.39;81.88;97892.59;5073243;28;20232;-62
2022/04/20 06:01:02;;;;;;;5.23;4.37;;;;;;;7.20;77.23;97893.91;5073138;28;20230;-61
2022/04/20 06:03:28;;;;;;;5.70;4.83;;;;;;;7.99;71.59;97886.31;5073174;28;20583;-62
2022/04/20 06:05:55;;;;;;;4.87;4.37;;;;;;;8.70;67.47;97887.00;5072746;28;20239;-63
2022/04/20 06:08:22;;;;;;;4.60;4.20;;;;;;;9.24;65.08;97880.69;5072592;28;20243;-62
2022/04/20 06:10:50;;;;;;;4.47;4.07;;;;;;;9.81;62.12;97881.94;5073062;28;20219;-62
2022/04/20 06:13:17;;;;;;;6.37;4.67;;;;;;;10.23;61.00;97886.84;5072844;28;20218;-62
2022/04/20 06:15:44;;;;;;;4.47;4.00;;;;;;;10.54;58.67;97894.25;5072996;28;20209;-63
2022/04/20 06:18:10;;;;;;;6.13;4.50;;;;;;;10.46;58.17;97886.06;5072893;28;20577;-61
2022/04/20 06:20:37;;;;;;;4.87;4.30;;;;;;;9.83;61.02;97895.88;5071348;28;20215;-62
2022/04/20 06:23:03;;;;;;;4.87;4.37;;;;;;;8.97;65.03;97898.34;5072786;28;20230;-62
2022/04/20 06:25:29;;;;;;;4.73;4.30;;;;;;;8.44;67.40;97899.22;5072519;28;20238;-60
2022/04/20 06:27:57;;;;;;;5.10;4.33;;;;;;;8.15;68.03;97891.47;5072682;28;20219;-61
2022/04/20 06:30:24;;;;;;;5.20;4.67;;;;;;;7.92;69.67;97900.81;5072594;28;20218;-61
2022/04/20 06:32:50;;;;;;;4.80;4.37;;;;;;;7.78;70.91;97902.59;5072744;28;20601;-61
2022/04/20 06:35:17;;;;;;;4.83;4.40;;;;;;;7.80;73.64;97895.44;5072744;28;20617;-61
2022/04/20 06:37:43;;;;;;;7.43;4.63;;;;;;;7.74;73.96;97893.19;5072365;28;20216;-61
2022/04/20 06:40:10;;;;;;;6.20;4.73;;;;;;;7.77;73.61;97890.38;5075385;28;20227;-62
2022/04/20 06:42:37;;;;;;;5.27;4.20;;;;;;;7.85;72.29;97894.19;5076589;28;20250;-61
2022/04/20 06:45:05;;;;;;;4.93;4.40;;;;;;;7.92;71.87;97892.06;5075592;28;20215;-60
2022/04/20 06:47:33;;;;;;;5.27;4.20;;;;;;;7.93;72.43;97891.09;5075718;28;20591;-60
2022/04/20 06:49:59;;;;;;;5.57;4.67;;;;;;;8.03;70.74;97892.22;5076373;28;20215;-60
2022/04/20 07:00:39;;;;;;;4.30;3.90;;;;;;;8.30;69.87;97885.25;5076036;28;20215;-61
2022/04/20 07:03:07;;;;;;;4.97;4.43;;;;;;;8.40;68.08;97875.81;5075916;28;20212;-61
2022/04/20 07:05:34;;;;;;;5.13;4.63;;;;;;;8.47;69.89;97874.47;5075814;28;20681;-61
2022/04/20 07:08:01;;;;;;;5.67;4.43;;;;;;;8.63;69.31;97875.19;5076015;28;20216;-61
2022/04/20 07:10:28;;;;;;;5.33;4.20;;;;;;;8.72;67.36;97864.88;5076143;28;20214;-61
2022/04/20 07:12:55;;;;;;;4.57;3.67;;;;;;;8.79;67.76;97863.53;5074429;28;20285;-61
2022/04/20 07:15:21;;;;;;;6.17;4.17;;;;;;;9.02;68.25;97872.53;5076021;28;20591;-60
2022/04/20 07:17:49;;;;;;;5.70;4.00;;;;;;;9.20;65.32;97868.66;5075253;28;20215;-61
2022/04/20 07:20:18;;;;;;;4.17;3.73;;;;;;;9.42;64.49;97866.25;5074339;28;20219;-61
2022/04/20 07:22:47;;;;;;;4.10;3.70;;;;;;;9.62;62.56;97855.97;5074770;28;20247;-60
2022/04/20 07:25:15;;;;;;;3.73;3.43;;;;;;;9.74;62.96;97862.22;5074437;28;20216;-60
2022/04/20 07:27:42;;;;;;;4.37;3.87;;;;;;;9.86;62.30;97864.81;5074362;28;20587;-60
2022/04/20 07:30:09;;;;;;;5.50;3.70;;;;;;;9.98;60.66;97858.66;5074055;28;20227;-61
2022/04/20 07:32:36;;;;;;;4.13;3.50;;;;;;;10.05;59.86;97856.47;5074200;28;20238;-62
2022/04/20 07:35:04;;;;;;;4.37;3.97;;;;;;;10.11;60.08;97858.69;5074306;28;20215;-62
2022/04/20 07:37:31;;;;;;;4.80;3.90;;;;;;;10.24;57.70;97864.78;5073984;28;20216;-62
2022/04/20 07:39:58;;;;;;;3.80;3.50;;;;;;;10.14;58.06;97854.03;5073033;28;20212;-61
2022/04/20 07:42:25;;;;;;;3.90;3.47;;;;;;;10.27;59.46;97865.38;5074010;28;20697;-60
2022/04/20 07:44:54;;;;;;;3.87;3.47;;;;;;;10.48;59.14;97868.28;5073922;28;20215;-61
2022/04/20 07:47:22;;;;;;;10.37;4.23;;;;;;;10.56;58.44;97866.78;5073971;28;20247;-61
2022/04/20 07:52:38;;;;;;;4.90;3.43;;;;;;;10.59;56.79;97871.81;5073261;28;20634;-61
2022/04/20 07:55:10;;;;;;;3.37;3.07;;;;;;;10.72;56.75;97877.91;5073960;28;20226;-60
2022/04/20 07:57:36;;;;;;;3.93;3.27;;;;;;;10.76;55.48;97874.06;5065234;28;20561;-61
2022/04/20 08:00:04;;;;;;;4.23;3.70;;;;;;;10.85;56.56;97873.41;5073739;28;20210;-60
2022/04/20 08:02:30;;;;;;;3.70;3.40;;;;;;;10.98;54.42;97874.16;5073934;28;20215;-60
2022/04/20 08:04:57;;;;;;;4.27;3.13;;;;;;;11.00;54.33;97872.25;5068908;28;20211;-61
2022/04/20 08:07:23;;;;;;;3.57;3.27;;;;;;;11.05;53.80;97874.53;5072580;28;20660;-63
2022/04/20 08:09:51;;;;;;;3.93;3.40;;;;;;;11.11;54.55;97874.06;5072919;28;20712;-62
2022/04/20 08:12:18;;;;;;;4.40;3.30;;;;;;;11.11;54.91;97872.28;5072266;28;20261;-62
2022/04/20 08:14:44;;;;;;;3.43;3.13;;;;;;;11.28;51.82;97874.50;5060809;28;21467;-61
2022/04/20 08:17:11;;;;;;;5.20;2.93;;;;;;;11.36;52.66;97872.09;5065477;28;20248;-62
2022/04/20 08:19:37;;;;;;;3.50;3.20;;;;;;;11.35;52.35;97866.94;5071980;28;20221;-61
2022/04/20 08:22:05;;;;;;;4.03;3.63;;;;;;;11.39;52.67;97868.38;5072746;28;20238;-61
2022/04/20 08:24:32;;;;;;;8.37;3.40;;;;;;;11.37;51.20;97875.59;5072488;28;20216;-62
2022/04/20 08:27:00;;;;;;;3.40;3.10;;;;;;;11.47;49.74;97868.63;5071171;28;20625;-61
2022/04/20 08:29:26;;;;;;;3.40;3.10;;;;;;;11.46;50.14;97865.16;5071022;28;20215;-61
2022/04/20 08:31:53;;;;;;;3.60;2.93;;;;;;;11.51;50.09;97872.75;5070775;28;20628;-60
2022/04/20 08:34:19;;;;;;;3.50;3.20;;;;;;;11.51;48.71;97878.03;5073077;28;20229;-61
2022/04/20 08:36:46;;;;;;;3.77;2.80;;;;;;;11.51;49.42;97878.03;5073090;28;20222;-61
2022/04/20 08:39:12;;;;;;;3.20;3.00;;;;;;;11.57;48.40;97873.09;5072867;28;20240;-60
2022/04/20 08:41:40;;;;;;;3.77;3.30;;;;;;;11.66;50.25;97872.44;5072802;28;20286;-61
2022/04/20 08:44:12;;;;;;;4.67;3.20;;;;;;;11.76;49.58;97869.91;5072806;28;20669;-61
2022/04/20 08:46:40;;;;;;;5.17;2.97;;;;;;;11.87;48.90;97875.22;5072919;28;20774;-60
2022/04/20 08:49:07;;;;;;;4.60;3.50;;;;;;;11.91;47.37;97872.19;5073005;28;20217;-61
2022/04/20 08:54:14;;;;;;;4.27;3.87;;;;;;;11.92;48.72;97878.34;5073117;28;20214;-60
2022/04/20 08:59:26;;;;;;;3.30;2.90;;;;;;;12.12;49.09;97870.53;5070888;28;20296;-61
2022/04/20 09:01:53;;;;;;;3.90;3.37;;;;;;;12.27;46.97;97866.63;5072471;28;20215;-60
2022/04/20 09:04:20;;;;;;;4.77;3.10;;;;;;;12.33;46.61;97855.53;5072583;28;20221;-62
2022/04/20 09:06:47;;;;;;;5.77;3.10;;;;;;;12.39;46.31;97860.34;5072466;28;20238;-61
2022/04/20 09:09:14;;;;;;;5.60;3.43;;;;;;;12.37;44.83;97851.69;5072397;28;20219;-62
2022/04/20 09:11:41;;;;;;;3.73;3.43;;;;;;;12.30;47.02;97858.44;5072662;28;20214;-60
2022/04/20 09:14:13;;;;;;;4.30;3.23;;;;;;;12.27;46.94;97848.09;5072222;28;20212;-60
2022/04/20 09:16:41;;;;;;;3.57;2.90;;;;;;;12.39;48.12;97851.53;5072500;28;20307;-60
2022/04/20 09:19:08;;;;;;;3.27;2.90;;;;;;;12.56;44.75;97837.78;5072440;28;20212;-60
2022/04/20 09:21:35;;;;;;;5.77;3.27;;;;;;;12.74;46.88;97845.06;5072311;28;20224;-62
2022/04/20 09:24:06;;;;;;;3.10;2.80;;;;;;;12.86;45.66;97838.75;5068092;28;20205;-61
2022/04/20 09:26:33;;;;;;;4.03;2.63;;;;;;;12.91;45.68;97848.97;5072275;28;20307;-61
2022/04/20 09:29:06;;;;;;;3.27;2.80;;;;;;;12.91;43.23;97846.34;5072236;28;20214;-61
2022/04/20 09:31:43;;;;;;;3.60;2.83;;;;;;;12.97;45.16;97837.91;5072109;28;20222;-61
2022/04/20 09:34:10;;;;;;;3.43;3.13;;;;;;;13.06;44.45;97845.06;5072092;28;20219;-61
2022/04/20 09:36:43;;;;;;;3.40;2.70;;;;;;;13.14;44.88;97855.91;5071985;28;20222;-61
2022/04/20 09:39:10;;;;;;;3.57;2.77;;;;;;;13.15;43.43;97850.44;5071795;28;20234;-61
2022/04/20 09:41:56;;;;;;;3.03;2.83;;;;;;;13.17;43.70;97850.31;5071871;28;20247;-61
2022/04/20 09:44:23;;;;;;;2.97;2.67;;;;;;;13.23;42.78;97844.50;5071784;28;20696;-61
2022/04/20 09:49:55;;;;;;;3.00;2.70;;;;;;;13.40;41.94;97846.59;5069543;28;20209;-61
2022/04/20 09:52:21;;;;;;;3.30;2.33;;;;;;;13.38;40.20;97849.34;5070132;28;20332;-61
2022/04/20 09:54:53;;;;;;;3.03;2.70;;;;;;;13.28;41.26;97842.31;5071617;28;20211;-62
2022/04/20 09:57:21;;;;;;;3.13;2.57;;;;;;;13.27;40.73;97843.28;5071960;28;20269;-61
2022/04/20 09:59:58;;;;;;;2.27;2.07;;;;;;;13.12;40.98;97842.75;5071922;28;20222;-61
2022/04/20 10:02:27;;;;;;;3.17;2.37;;;;;;;13.21;41.49;97835.84;5071698;28;20298;-61
2022/04/20 10:04:53;;;;;;;3.23;2.40;;;;;;;13.45;39.81;97831.94;5071809;28;20222;-62
2022/04/20 10:07:20;;;;;;;2.47;2.20;;;;;;;13.47;39.99;97842.44;5071651;28;20239;-62
2022/04/20 10:09:47;;;;;;;3.70;2.57;;;;;;;13.43;40.14;97831.22;5071770;28;20219;-63
2022/04/20 10:12:15;;;;;;;2.40;2.20;;;;;;;13.48;40.65;97822.88;5071422;28;20626;-61
2022/04/20 10:17:44;;;;;;;3.17;2.57;;;;;;;13.87;41.58;97822.09;5033165;28;20262;-61
2022/04/20 10:20:12;;;;;;;2.70;2.50;;;;;;;13.83;40.41;97813.56;5071606;28;20218;-61
2022/04/20 10:22:40;;;;;;;3.67;2.20;;;;;;;14.02;40.16;97818.09;5071207;28;20673;-63
2022/04/20 10:25:07;;;;;;;2.97;2.40;;;;;;;14.04;39.79;97810.81;5071415;28;20229;-61
2022/04/20 10:27:43;;;;;;;3.23;2.37;;;;;;;14.07;40.13;97810.56;5071511;28;20605;-62
2022/04/20 10:30:16;;;;;;;2.77;2.20;;;;;;;14.08;39.18;97804.25;5065493;28;20222;-62
2022/04/20 10:32:51;;;;;;;2.27;2.07;;;;;;;13.96;39.37;97808.00;5071245;28;20610;-62
2022/04/20 10:35:18;;;;;;;2.63;2.37;;;;;;;13.91;38.52;97799.59;5065797;28;20237;-60
2022/04/20 10:38:08;;;;;;;2.53;2.33;;;;;;;13.88;39.50;97794.56;5071199;28;20696;-61
2022/04/20 10:40:35;;;;;;;2.63;2.40;;;;;;;13.90;37.73;97793.44;5071529;28;20230;-62
2022/04/20 10:43:20;;;;;;;4.10;2.27;;;;;;;13.72;38.79;97788.88;5064178;28;20243;-61
2022/04/20 10:46:14;;;;;;;2.07;1.90;;;;;;;13.93;39.61;97781.72;5070614;28;20215;-61
2022/04/20 10:48:46;;;;;;;2.97;2.40;;;;;;;14.15;39.51;97784.13;5068982;28;20736;-61
2022/04/20 10:51:14;;;;;;;2.40;2.20;;;;;;;14.18;39.98;97789.19;5071232;28;20211;-61
2022/04/20 10:53:41;;;;;;;2.87;2.40;;;;;;;14.40;38.59;97787.16;5071115;28;20215;-62
2022/04/20 10:56:08;;;;;;;3.53;2.47;;;;;;;14.34;37.84;97781.53;5071035;28;20738;-61
2022/04/20 10:58:35;;;;;;;2.93;2.07;;;;;;;14.38;40.22;97778.50;5071146;28;20599;-61
2022/04/20 11:01:10;;;;;;;2.40;2.20;;;;;;;14.38;38.21;97774.97;5066246;28;20211;-60
2022/04/20 11:04:10;;;;;;;3.00;2.17;;;;;;;14.57;36.88;97780.31;5063038;28;20240;-60
2022/04/20 11:07:12;;;;;;;3.30;1.93;;;;;;;14.64;39.38;97773.47;5064056;28;20226;-61
2022/04/20 11:10:06;;;;;;;2.40;2.20;;;;;;;14.78;38.94;97787.19;5064574;28;20298;-61
2022/04/20 11:18:42;;;;;;;3.37;2.40;;;;;;;14.67;38.17;97767.88;5063459;28;20218;-62
2022/04/20 11:21:19;;;;;;;4.00;2.50;;;;;;;14.70;39.00;97762.25;5070797;28;20672;-61
2022/04/20 11:24:13;;;;;;;2.50;2.27;;;;;;;14.90;37.78;97770.09;5071119;28;20284;-61
2022/04/20 11:26:41;;;;;;;3.10;2.27;;;;;;;14.94;37.64;97760.84;5045888;28;20235;-61
2022/04/20 11:29:14;;;;;;;3.63;2.37;;;;;;;14.95;36.84;97756.34;5066485;28;20208;-61
2022/04/20 11:31:43;;;;;;;2.80;2.40;;;;;;;14.89;37.19;97746.28;5074200;28;20862;-61
2022/04/20 11:34:10;;;;;;;2.80;2.50;;;;;;;14.96;37.85;97750.09;5074203;28;20216;-61
2022/04/20 11:36:43;;;;;;;3.13;2.80;;;;;;;14.94;37.33;97747.56;5072650;28;20215;-62
2022/04/20 11:39:10;;;;;;;4.27;2.60;;;;;;;14.88;36.46;97742.78;5073934;28;20247;-60
2022/04/20 11:41:37;;;;;;;2.97;2.50;;;;;;;14.75;35.45;97738.75;5072969;28;20235;-61
2022/04/20 11:44:04;;;;;;;3.00;2.70;;;;;;;14.74;36.89;97734.41;5073673;28;20691;-61
2022/04/20 11:46:34;;;;;;;3.17;2.40;;;;;;;14.91;37.60;97733.69;5074000;28;20265;-61
2022/04/20 11:49:00;;;;;;;2.67;2.47;;;;;;;14.89;35.91;97727.66;5074007;28;20747;-61
2022/04/20 11:51:29;;;;;;;4.33;2.80;;;;;;;14.96;37.67;97734.13;5073983;28;20586;-61
2022/04/20 11:53:57;;;;;;;2.90;2.53;;;;;;;14.96;36.87;97736.78;5073814;28;20787;-61
2022/04/20 11:56:34;;;;;;;2.50;2.30;;;;;;;14.94;37.52;97731.59;5074062;28;20212;-62
2022/04/20 11:59:01;;;;;;;3.13;2.70;;;;;;;14.95;37.55;97732.41;5074045;28;20246;-61
2022/04/20 12:01:30;;;;;;;2.90;2.70;;;;;;;15.00;37.47;97743.47;5073925;28;20211;-62
2022/04/20 12:03:56;;;;;;;2.80;2.60;;;;;;;15.13;38.35;97730.69;5072247;28;20219;-61
2022/04/20 12:06:25;;;;;;;3.80;2.73;;;;;;;15.13;37.49;97723.56;5073733;28;20574;-61
2022/04/20 12:08:54;;;;;;;3.50;3.00;;;;;;;15.09;37.84;97727.47;5073669;28;20239;-61
2022/04/20 12:11:22;;;;;;;2.70;2.50;;;;;;;15.06;37.46;97722.47;5073793;28;20242;-61
2022/04/20 12:13:54;;;;;;;4.50;2.90;;;;;;;14.95;35.51;97713.78;5073543;28;20289;-62
2022/04/20 12:16:23;;;;;;;2.93;2.60;;;;;;;14.80;36.56;97707.25;5057938;28;20212;-62
2022/04/20 12:18:50;;;;;;;3.00;2.70;;;;;;;14.85;37.83;97712.97;5073520;28;20223;-61
2022/04/20 12:21:36;;;;;;;3.63;2.97;;;;;;;15.05;37.82;97704.81;5066034;28;20218;-61
2022/04/20 12:24:03;;;;;;;4.87;3.00;;;;;;;15.11;37.30;97706.06;5073185;28;20223;-61